South Bend, Texas
Current Conditions -  °F | °C
As of 11:50 PM on Saturday 25 Oct 2014 (Local Time) from KRPH Reporting Station
Clear Clear  
Wind Chill: 73°   Ceiling: Unl
Heat Index: 73°   Visibility: 10mi
Dew Point: 58°   Wind: 5mph
Humidity: 60%   Direction: 170°S
Pressure: 30.02"   Gusts: NA
Location:  33.01°N, 98.66°W
Report Text: KRPH 260450Z AUTO 17004KT 10SM CLR 23/15 A3002 RMK AO2 T02260145
Loading
Personal Weather Stations






























Interactive Weather Map
Tropical Storm Tracking
New forecast layout! Learn more

10-Day Weather Forecast

Advertisements
Track Severe Weather on mobile